createdAt,value
2023-01-29T00:02:23.066Z,78.23
2023-01-29T00:04:50.416Z,78.33
2023-01-29T00:07:17.742Z,78.23
2023-01-29T00:09:45.025Z,77.90
2023-01-29T00:12:12.353Z,78.09
2023-01-29T00:14:39.729Z,78.06
2023-01-29T00:17:07.033Z,77.97
2023-01-29T00:19:34.502Z,77.70
2023-01-29T00:22:01.778Z,77.93
2023-01-29T00:24:29.177Z,77.84
2023-01-29T00:26:56.459Z,77.50
2023-01-29T00:29:23.752Z,77.77
2023-01-29T00:31:51.084Z,77.83
2023-01-29T00:34:19.013Z,77.74
2023-01-29T00:36:46.518Z,77.33
2023-01-29T00:39:13.807Z,77.43
2023-01-29T00:41:59.684Z,77.22
2023-01-29T00:44:45.659Z,77.25
2023-01-29T00:47:31.149Z,76.92
2023-01-29T00:49:58.521Z,77.45
2023-01-29T00:52:26.270Z,77.47
2023-01-29T00:54:54.538Z,77.70
2023-01-29T00:57:22.172Z,77.33
2023-01-29T00:59:49.610Z,76.78
2023-01-29T01:02:35.454Z,76.67
2023-01-29T01:05:07.918Z,77.11
2023-01-29T01:07:35.253Z,77.58
2023-01-29T01:10:21.119Z,77.45
2023-01-29T01:13:02.190Z,77.00
2023-01-29T01:15:35.329Z,77.36
2023-01-29T01:18:03.979Z,77.41
2023-01-29T01:20:32.795Z,77.68
2023-01-29T01:23:00.137Z,77.44
2023-01-29T01:25:27.768Z,77.67
2023-01-29T01:27:56.409Z,77.52
2023-01-29T01:30:23.827Z,76.53
2023-01-29T01:32:51.481Z,76.95
2023-01-29T01:35:18.913Z,77.01
2023-01-29T01:37:46.287Z,76.98
2023-01-29T01:40:18.444Z,77.31
2023-01-29T01:43:01.590Z,76.83
2023-01-29T01:45:32.779Z,77.09
2023-01-29T01:48:19.793Z,77.14
2023-01-29T01:50:51.065Z,76.85
2023-01-29T01:53:23.199Z,77.66
2023-01-29T01:55:52.966Z,77.29
2023-01-29T01:58:26.890Z,77.33
2023-01-29T02:00:54.531Z,77.30
2023-01-29T02:03:40.422Z,77.21
2023-01-29T02:06:26.598Z,77.23
2023-01-29T02:09:27.886Z,77.33
2023-01-29T02:11:55.227Z,77.45
2023-01-29T02:14:22.863Z,76.92
2023-01-29T02:16:50.178Z,77.25
2023-01-29T02:19:29.587Z,77.01
2023-01-29T02:22:13.989Z,77.17
2023-01-29T02:25:17.028Z,77.27
2023-01-29T02:28:14.688Z,77.21
2023-01-29T02:30:44.613Z,77.11
2023-01-29T02:33:22.447Z,77.00
2023-01-29T02:35:52.711Z,76.54
2023-01-29T02:38:29.521Z,76.35
2023-01-29T02:41:05.549Z,76.28
2023-01-29T02:43:39.075Z,76.59
2023-01-29T02:46:24.301Z,75.92
2023-01-29T02:49:27.952Z,76.53
2023-01-29T02:52:09.836Z,76.81
2023-01-29T02:54:51.063Z,76.23
2023-01-29T02:57:33.137Z,76.66
2023-01-29T03:00:24.679Z,76.46
2023-01-29T03:02:58.205Z,76.19
2023-01-29T03:05:43.568Z,76.25
2023-01-29T03:08:12.443Z,76.39
2023-01-29T03:10:40.940Z,75.63
2023-01-29T03:13:13.683Z,74.93
2023-01-29T03:15:47.623Z,75.47
2023-01-29T03:18:27.907Z,75.70
2023-01-29T03:21:04.225Z,75.92
2023-01-29T03:23:51.638Z,75.78
2023-01-29T03:26:39.764Z,75.62
2023-01-29T03:29:25.792Z,75.16
2023-01-29T03:32:04.567Z,75.41
2023-01-29T03:34:42.034Z,75.38
2023-01-29T03:37:15.326Z,75.68
2023-01-29T03:39:42.740Z,75.19
2023-01-29T03:42:24.662Z,74.92
2023-01-29T03:45:08.647Z,75.12
2023-01-29T03:47:46.662Z,75.37
2023-01-29T03:50:47.637Z,75.85
2023-01-29T03:53:21.422Z,75.92
2023-01-29T03:56:02.365Z,75.76
2023-01-29T03:58:37.796Z,75.75
2023-01-29T04:01:17.176Z,75.97
2023-01-29T04:04:04.034Z,75.34
2023-01-29T04:06:33.403Z,75.83
2023-01-29T04:09:07.523Z,75.43
2023-01-29T04:11:40.897Z,75.76
2023-01-29T04:14:09.030Z,75.61
2023-01-29T04:16:38.658Z,75.57
2023-01-29T04:19:26.365Z,75.28
2023-01-29T04:22:00.665Z,75.10
2023-01-29T04:24:28.104Z,74.92
2023-01-29T04:27:11.057Z,75.58
2023-01-29T04:29:54.775Z,75.05
2023-01-29T04:32:31.189Z,75.43
2023-01-29T04:35:17.048Z,74.93
2023-01-29T04:37:50.936Z,75.46
2023-01-29T04:40:27.259Z,75.16
2023-01-29T04:43:07.149Z,75.25
2023-01-29T04:45:56.490Z,74.49
2023-01-29T04:48:30.637Z,74.92
2023-01-29T04:51:04.357Z,74.78
2023-01-29T04:53:52.748Z,74.71
2023-01-29T04:56:29.713Z,74.89
2023-01-29T04:59:03.415Z,75.32
2023-01-29T05:01:33.272Z,75.19
2023-01-29T05:04:02.414Z,74.31
2023-01-29T05:06:30.137Z,74.04
2023-01-29T05:08:57.504Z,73.98
2023-01-29T05:11:25.018Z,74.04
2023-01-29T05:13:52.378Z,73.56
2023-01-29T05:16:21.972Z,73.37
2023-01-29T05:18:49.409Z,73.42
2023-01-29T05:21:16.842Z,73.46
2023-01-29T05:23:53.438Z,73.48
2023-01-29T05:26:39.740Z,73.95
2023-01-29T05:29:07.073Z,73.22
2023-01-29T05:31:34.335Z,73.93
2023-01-29T05:34:01.688Z,73.47
2023-01-29T05:36:29.260Z,72.93
2023-01-29T05:38:56.557Z,73.17
2023-01-29T05:41:23.826Z,72.42
2023-01-29T05:43:51.378Z,72.32
2023-01-29T05:46:18.956Z,72.88
2023-01-29T05:48:46.257Z,72.62
2023-01-29T05:51:13.493Z,72.81
2023-01-29T05:53:40.800Z,72.68
2023-01-29T05:56:08.447Z,72.69
2023-01-29T05:58:35.790Z,72.87
2023-01-29T06:01:13.765Z,73.19
2023-01-29T06:03:41.285Z,72.46
2023-01-29T06:06:08.732Z,72.83
2023-01-29T06:08:36.096Z,72.78
2023-01-29T06:11:03.435Z,72.37
2023-01-29T06:13:30.859Z,72.47
2023-01-29T06:15:58.120Z,71.93
2023-01-29T06:18:25.515Z,72.08
2023-01-29T06:20:52.793Z,72.04
2023-01-29T06:23:20.092Z,71.93
2023-01-29T06:25:47.393Z,72.25
2023-01-29T06:28:14.692Z,72.54
2023-01-29T06:30:41.953Z,72.52
2023-01-29T06:33:09.360Z,71.71
2023-01-29T06:35:36.605Z,72.39
2023-01-29T06:38:03.940Z,72.77
2023-01-29T06:40:31.232Z,72.18
2023-01-29T06:43:00.820Z,72.26
2023-01-29T06:45:28.125Z,72.44
2023-01-29T06:47:56.269Z,72.50
2023-01-29T06:50:23.605Z,72.31
2023-01-29T06:52:50.910Z,71.86
2023-01-29T06:55:18.312Z,72.08
2023-01-29T06:57:45.565Z,71.63
2023-01-29T07:00:13.502Z,72.02
2023-01-29T07:02:40.891Z,72.40
2023-01-29T07:05:08.277Z,72.36
2023-01-29T07:07:36.845Z,72.32
2023-01-29T07:10:04.432Z,71.98
2023-01-29T07:12:31.806Z,72.09
2023-01-29T07:14:59.052Z,72.41
2023-01-29T07:17:26.358Z,71.95
2023-01-29T07:19:53.645Z,71.22
2023-01-29T07:22:21.010Z,71.73
2023-01-29T07:24:48.588Z,72.04
2023-01-29T07:27:15.931Z,71.44
2023-01-29T07:29:43.218Z,71.65
2023-01-29T07:32:10.635Z,71.83
2023-01-29T07:34:37.945Z,71.45
2023-01-29T07:37:06.390Z,71.33
2023-01-29T07:39:33.661Z,71.09
2023-01-29T07:42:02.555Z,71.25
2023-01-29T07:44:29.809Z,71.91
2023-01-29T07:46:57.099Z,71.76
2023-01-29T07:49:24.485Z,71.26
2023-01-29T07:51:51.876Z,71.51
2023-01-29T07:54:19.295Z,71.11
2023-01-29T07:56:46.578Z,71.36
2023-01-29T07:59:13.881Z,71.40
2023-01-29T08:01:41.261Z,71.26
2023-01-29T08:04:08.509Z,71.40
2023-01-29T08:06:35.777Z,71.75
2023-01-29T08:09:03.810Z,71.51
2023-01-29T08:11:31.184Z,71.69
2023-01-29T08:13:58.537Z,71.46
2023-01-29T08:16:26.032Z,71.48
2023-01-29T08:18:53.353Z,71.00
2023-01-29T08:21:20.744Z,71.47
2023-01-29T08:23:47.995Z,72.09
2023-01-29T08:26:15.247Z,71.40
2023-01-29T08:28:42.609Z,71.70
2023-01-29T08:31:17.245Z,71.97
2023-01-29T08:33:44.558Z,71.64
2023-01-29T08:36:11.838Z,71.99
2023-01-29T08:38:39.193Z,71.02
2023-01-29T08:41:06.653Z,71.76
2023-01-29T08:43:36.996Z,70.98
2023-01-29T08:46:05.435Z,70.37
2023-01-29T08:48:33.389Z,70.59
2023-01-29T08:51:01.649Z,70.95
2023-01-29T08:53:28.949Z,70.87
2023-01-29T08:55:56.333Z,70.54
2023-01-29T08:58:23.586Z,70.70
2023-01-29T09:00:50.952Z,70.84
2023-01-29T09:03:18.339Z,70.84
2023-01-29T09:05:46.909Z,71.13
2023-01-29T09:08:15.509Z,71.04
2023-01-29T09:10:42.813Z,70.57
2023-01-29T09:13:10.178Z,69.88
2023-01-29T09:15:37.703Z,68.97
2023-01-29T09:18:05.521Z,67.88
2023-01-29T09:20:32.900Z,67.77
2023-01-29T09:23:07.100Z,67.53
2023-01-29T09:25:34.669Z,67.41
2023-01-29T09:28:02.168Z,67.65
2023-01-29T09:30:29.614Z,68.54
2023-01-29T09:32:56.863Z,68.12
2023-01-29T09:35:24.373Z,67.69
2023-01-29T09:37:51.851Z,67.33
2023-01-29T09:40:52.756Z,67.32
2023-01-29T09:43:34.444Z,66.47
2023-01-29T09:46:06.778Z,66.71
2023-01-29T09:48:34.672Z,66.94
2023-01-29T09:51:05.400Z,66.38
2023-01-29T09:53:40.928Z,66.51
2023-01-29T09:56:13.347Z,66.08
2023-01-29T09:58:42.237Z,66.25
2023-01-29T10:01:13.894Z,65.84
2023-01-29T10:03:59.933Z,65.81
2023-01-29T10:06:40.077Z,66.34
2023-01-29T10:09:29.476Z,66.00
2023-01-29T10:12:12.690Z,65.49
2023-01-29T10:15:18.751Z,65.17
2023-01-29T10:18:10.826Z,66.14
2023-01-29T10:21:15.690Z,66.49
2023-01-29T10:23:47.620Z,67.01
2023-01-29T10:26:15.530Z,66.74
2023-01-29T10:28:48.551Z,65.73
2023-01-29T10:31:22.677Z,65.48
2023-01-29T10:34:01.882Z,65.81
2023-01-29T10:36:45.282Z,66.70
2023-01-29T10:39:16.995Z,66.97
2023-01-29T10:42:06.076Z,66.98
2023-01-29T10:45:10.821Z,65.78
2023-01-29T10:47:57.075Z,65.91
2023-01-29T10:50:42.475Z,66.56
2023-01-29T10:53:15.705Z,67.00
2023-01-29T10:56:14.100Z,67.14
2023-01-29T10:59:01.324Z,66.56
2023-01-29T11:01:28.717Z,67.36
2023-01-29T11:04:01.225Z,68.02
2023-01-29T11:06:33.786Z,68.11
2023-01-29T11:12:12.738Z,68.37
2023-01-29T11:14:47.674Z,67.15
2023-01-29T11:17:20.159Z,67.55
2023-01-29T11:19:48.550Z,67.23
2023-01-29T11:22:17.692Z,65.08
2023-01-29T11:24:45.098Z,64.80
2023-01-29T11:27:26.103Z,65.21
2023-01-29T11:29:53.809Z,66.26
2023-01-29T11:32:24.149Z,66.31
2023-01-29T11:35:01.873Z,66.03
2023-01-29T11:37:47.395Z,65.59
2023-01-29T11:40:37.487Z,65.76
2023-01-29T11:43:19.955Z,66.83
2023-01-29T11:45:51.826Z,66.48
2023-01-29T11:48:28.713Z,66.12
2023-01-29T11:50:57.929Z,65.97
2023-01-29T11:53:41.010Z,65.81
2023-01-29T11:56:35.447Z,65.25
2023-01-29T11:59:04.675Z,65.55
2023-01-29T12:01:39.457Z,65.87
2023-01-29T12:04:18.273Z,66.44
2023-01-29T12:06:47.902Z,66.10
2023-01-29T12:09:17.753Z,67.05
2023-01-29T12:11:45.294Z,66.88
2023-01-29T12:14:42.099Z,66.89
2023-01-29T12:17:20.246Z,66.62
2023-01-29T12:19:53.898Z,66.15
2023-01-29T12:22:44.960Z,66.65
2023-01-29T12:25:23.437Z,65.11
2023-01-29T12:28:42.151Z,65.79
2023-01-29T12:31:12.888Z,66.34
2023-01-29T12:34:09.634Z,66.40
2023-01-29T12:36:47.211Z,66.26
2023-01-29T12:39:16.525Z,65.66
2023-01-29T12:41:47.952Z,66.08
2023-01-29T12:44:26.050Z,65.52
2023-01-29T12:46:55.410Z,66.04
2023-01-29T12:49:24.509Z,66.96
2023-01-29T12:52:13.724Z,66.40
2023-01-29T12:54:57.615Z,66.66
2023-01-29T12:57:54.467Z,65.71
2023-01-29T13:00:45.205Z,67.05
2023-01-29T13:03:25.435Z,67.06
2023-01-29T13:05:57.555Z,67.22
2023-01-29T13:08:32.845Z,66.78
2023-01-29T13:11:01.663Z,66.92
2023-01-29T13:13:32.058Z,67.76
2023-01-29T13:16:00.669Z,67.90
2023-01-29T13:18:36.917Z,68.21
2023-01-29T13:21:04.851Z,68.48
2023-01-29T13:23:35.195Z,69.01
2023-01-29T13:26:02.582Z,68.90
2023-01-29T13:28:29.923Z,68.07
2023-01-29T13:31:19.059Z,68.52
2023-01-29T13:33:53.153Z,68.42
2023-01-29T13:36:24.268Z,69.17
2023-01-29T13:39:08.616Z,69.22
2023-01-29T13:41:38.826Z,69.27
2023-01-29T13:44:07.499Z,68.58
2023-01-29T13:46:34.825Z,69.34
2023-01-29T13:49:05.022Z,68.73
2023-01-29T13:51:35.599Z,69.31
2023-01-29T13:54:05.459Z,69.35
2023-01-29T13:56:35.863Z,69.57
2023-01-29T13:59:05.472Z,69.45
2023-01-29T14:01:48.182Z,69.95
2023-01-29T14:04:26.785Z,69.60
2023-01-29T14:06:58.352Z,69.90
2023-01-29T14:10:02.642Z,69.59
2023-01-29T14:12:33.525Z,70.09
2023-01-29T14:15:20.846Z,70.33
2023-01-29T14:18:21.397Z,70.26
2023-01-29T14:20:48.758Z,70.64
2023-01-29T14:23:19.060Z,70.65
2023-01-29T14:25:46.402Z,69.90
2023-01-29T14:28:15.431Z,69.82
2023-01-29T14:30:48.928Z,69.88
2023-01-29T14:33:31.492Z,70.50
2023-01-29T14:35:59.052Z,70.04
2023-01-29T14:38:27.317Z,70.17
2023-01-29T14:41:24.222Z,70.68
2023-01-29T14:43:51.683Z,70.19
2023-01-29T14:46:34.305Z,70.68
2023-01-29T14:49:01.782Z,70.05
2023-01-29T14:51:32.683Z,69.78
2023-01-29T14:54:05.336Z,69.82
2023-01-29T14:56:57.796Z,70.36
2023-01-29T14:59:31.931Z,69.93
2023-01-29T15:02:02.122Z,69.93
2023-01-29T15:04:45.637Z,70.29
2023-01-29T15:07:36.448Z,70.86
2023-01-29T15:10:22.331Z,70.53
2023-01-29T15:13:26.679Z,71.13
2023-01-29T15:16:03.098Z,71.03
2023-01-29T15:18:36.783Z,70.80
2023-01-29T15:21:05.966Z,70.47
2023-01-29T15:23:33.937Z,70.32
2023-01-29T15:26:03.359Z,69.70
2023-01-29T15:28:31.746Z,69.89
2023-01-29T15:31:01.746Z,70.12
2023-01-29T15:33:29.265Z,70.66
2023-01-29T15:36:08.785Z,70.89
2023-01-29T15:38:36.379Z,71.27
2023-01-29T15:41:16.080Z,71.69
2023-01-29T15:43:44.584Z,72.25
2023-01-29T15:46:19.162Z,73.03
2023-01-29T15:48:46.518Z,72.36
2023-01-29T15:51:16.611Z,72.40
2023-01-29T15:53:54.941Z,72.27
2023-01-29T15:56:44.536Z,72.15
2023-01-29T15:59:23.405Z,71.26
2023-01-29T16:01:50.881Z,71.34
2023-01-29T16:04:29.167Z,71.47
2023-01-29T16:06:56.636Z,70.99
2023-01-29T16:09:25.461Z,71.57
2023-01-29T16:11:53.717Z,71.76
2023-01-29T16:14:23.152Z,72.54
2023-01-29T16:16:50.564Z,72.43
2023-01-29T16:19:25.922Z,72.85
2023-01-29T16:22:00.788Z,72.34
2023-01-29T16:24:28.246Z,72.53
2023-01-29T16:27:06.623Z,72.23
2023-01-29T16:29:34.221Z,72.34
2023-01-29T16:32:02.645Z,71.99
2023-01-29T16:34:36.554Z,71.74
2023-01-29T16:37:09.041Z,71.46
2023-01-29T16:39:39.772Z,71.34
2023-01-29T16:42:10.898Z,71.21
2023-01-29T16:44:39.561Z,70.95
2023-01-29T16:47:14.231Z,71.85
2023-01-29T16:49:53.005Z,72.42
2023-01-29T16:52:29.000Z,72.49
2023-01-29T16:55:11.658Z,72.30
2023-01-29T16:57:39.132Z,72.56
2023-01-29T17:00:19.302Z,72.26
2023-01-29T17:02:46.777Z,72.39
2023-01-29T17:05:26.840Z,72.21
2023-01-29T17:07:56.963Z,71.98
2023-01-29T17:10:24.511Z,71.62
2023-01-29T17:13:00.831Z,72.62
2023-01-29T17:15:45.782Z,72.90
2023-01-29T17:18:23.829Z,72.67
2023-01-29T17:20:53.091Z,72.63
2023-01-29T17:23:20.667Z,73.26
2023-01-29T17:25:48.106Z,71.87
2023-01-29T17:28:16.592Z,72.14
2023-01-29T17:30:50.606Z,72.18
2023-01-29T17:33:22.868Z,72.43
2023-01-29T17:35:50.576Z,72.43
2023-01-29T17:38:25.856Z,71.97
2023-01-29T17:41:19.113Z,72.20
2023-01-29T17:43:46.847Z,73.34
2023-01-29T17:46:15.514Z,73.25
2023-01-29T17:48:43.135Z,74.08
2023-01-29T17:51:17.224Z,73.93
2023-01-29T17:53:46.618Z,73.57
2023-01-29T17:56:22.747Z,74.18
2023-01-29T17:58:50.271Z,74.40
2023-01-29T18:01:17.617Z,73.96
2023-01-29T18:03:45.059Z,73.97
2023-01-29T18:06:13.594Z,74.52
2023-01-29T18:08:41.074Z,74.63
2023-01-29T18:11:10.118Z,74.80
2023-01-29T18:13:37.696Z,74.89
2023-01-29T18:16:05.266Z,73.15
2023-01-29T18:18:32.762Z,73.13
2023-01-29T18:21:00.133Z,73.67
2023-01-29T18:23:29.637Z,74.20
2023-01-29T18:25:57.845Z,74.46
2023-01-29T18:28:25.338Z,74.27
2023-01-29T18:30:52.848Z,74.00
2023-01-29T18:33:20.311Z,74.11
2023-01-29T18:35:50.739Z,74.18
2023-01-29T18:38:18.220Z,74.52
2023-01-29T18:40:45.520Z,75.21
2023-01-29T18:43:14.147Z,75.88
2023-01-29T18:45:41.493Z,76.22
2023-01-29T18:48:08.947Z,76.26
2023-01-29T18:50:36.383Z,76.64
2023-01-29T18:53:04.431Z,76.52
2023-01-29T18:55:31.852Z,76.78
2023-01-29T18:58:24.928Z,76.71
2023-01-29T19:00:48.671Z,76.81
2023-01-29T19:03:16.069Z,76.73
2023-01-29T19:05:43.471Z,76.41
2023-01-29T19:08:11.013Z,76.07
2023-01-29T19:10:38.429Z,75.49
2023-01-29T19:13:06.642Z,76.16
2023-01-29T19:15:34.625Z,76.02
2023-01-29T19:18:02.165Z,75.72
2023-01-29T19:20:29.576Z,75.74
2023-01-29T19:22:56.874Z,75.21
2023-01-29T19:25:24.368Z,75.26
2023-01-29T19:27:51.699Z,75.15
2023-01-29T19:30:19.432Z,74.93
2023-01-29T19:32:46.815Z,75.41
2023-01-29T19:35:14.260Z,75.95
2023-01-29T19:37:41.601Z,75.98
2023-01-29T19:40:09.709Z,76.11
2023-01-29T19:42:37.720Z,76.21
2023-01-29T19:45:05.748Z,76.31
2023-01-29T19:47:33.924Z,76.14
2023-01-29T19:50:01.214Z,76.32
2023-01-29T19:52:51.414Z,76.84
2023-01-29T19:55:20.798Z,77.29
2023-01-29T19:57:48.451Z,76.84
2023-01-29T20:00:17.646Z,76.97
2023-01-29T20:02:45.578Z,76.76
2023-01-29T20:05:13.241Z,76.77
2023-01-29T20:07:42.508Z,77.18
2023-01-29T20:10:11.670Z,77.86
2023-01-29T20:12:39.102Z,77.95
2023-01-29T20:15:07.597Z,77.45
2023-01-29T20:17:34.996Z,77.50
2023-01-29T20:20:03.996Z,78.63
2023-01-29T20:22:31.502Z,78.59
2023-01-29T20:24:59.014Z,78.01
2023-01-29T20:27:26.363Z,78.11
2023-01-29T20:29:53.818Z,78.40
2023-01-29T20:32:21.112Z,78.67
2023-01-29T20:34:52.424Z,79.17
2023-01-29T20:37:19.937Z,79.01
2023-01-29T20:39:47.254Z,79.23
2023-01-29T20:42:14.713Z,79.13
2023-01-29T20:44:42.211Z,79.62
2023-01-29T20:47:09.677Z,79.96
2023-01-29T20:49:36.976Z,80.40
2023-01-29T20:52:04.382Z,80.34
2023-01-29T20:54:33.466Z,80.49
2023-01-29T20:57:01.336Z,80.28
2023-01-29T20:59:29.419Z,79.95
2023-01-29T21:01:56.918Z,79.88
2023-01-29T21:04:24.294Z,80.45
2023-01-29T21:06:51.757Z,80.44
2023-01-29T21:09:20.083Z,80.23
2023-01-29T21:11:47.670Z,80.22
2023-01-29T21:14:15.021Z,80.18
2023-01-29T21:16:42.568Z,79.79
2023-01-29T21:19:10.229Z,79.80
2023-01-29T21:21:37.607Z,80.63
2023-01-29T21:24:05.116Z,80.28
2023-01-29T21:26:32.476Z,80.13
2023-01-29T21:28:59.868Z,80.20
2023-01-29T21:31:27.383Z,79.69
2023-01-29T21:33:54.726Z,79.86
2023-01-29T21:36:22.105Z,79.31
2023-01-29T21:38:49.420Z,79.68
2023-01-29T21:41:16.808Z,79.77
2023-01-29T21:43:44.897Z,79.79
2023-01-29T21:46:12.416Z,80.41
2023-01-29T21:48:40.391Z,80.04
2023-01-29T21:51:07.869Z,80.05
2023-01-29T21:53:35.292Z,79.99
2023-01-29T21:56:03.436Z,80.13
2023-01-29T21:58:30.813Z,80.32
2023-01-29T22:01:35.659Z,80.44
2023-01-29T22:03:47.203Z,80.60
2023-01-29T22:06:15.220Z,80.57
2023-01-29T22:08:42.664Z,79.97
2023-01-29T22:11:10.167Z,80.09
2023-01-29T22:13:37.703Z,81.00
2023-01-29T22:16:06.121Z,80.42
2023-01-29T22:18:33.564Z,80.63
2023-01-29T22:21:02.959Z,80.02
2023-01-29T22:23:30.931Z,80.43
2023-01-29T22:26:09.056Z,80.44
2023-01-29T22:28:36.530Z,80.44
2023-01-29T22:31:04.429Z,80.83
2023-01-29T22:33:32.198Z,81.24
2023-01-29T22:35:59.675Z,81.22
2023-01-29T22:38:27.047Z,81.06
2023-01-29T22:40:54.782Z,80.42
2023-01-29T22:43:22.165Z,81.50
2023-01-29T22:45:49.429Z,82.28
2023-01-29T22:48:17.036Z,82.35
2023-01-29T22:50:53.127Z,81.44
2023-01-29T22:53:20.538Z,80.80
2023-01-29T22:55:55.474Z,80.84
2023-01-29T22:58:22.885Z,80.43
2023-01-29T23:00:51.252Z,81.29
2023-01-29T23:03:18.626Z,82.20
2023-01-29T23:05:45.864Z,82.67
2023-01-29T23:08:13.275Z,83.05
2023-01-29T23:10:40.573Z,83.26
2023-01-29T23:13:07.909Z,83.21
2023-01-29T23:15:35.193Z,83.24
2023-01-29T23:18:03.351Z,83.22
2023-01-29T23:20:30.604Z,82.98
2023-01-29T23:22:58.171Z,82.64
2023-01-29T23:25:45.483Z,82.89
2023-01-29T23:28:12.926Z,83.37
2023-01-29T23:30:40.271Z,83.35
2023-01-29T23:33:07.643Z,83.28
2023-01-29T23:35:35.053Z,82.80
2023-01-29T23:38:02.487Z,82.79
2023-01-29T23:40:29.776Z,81.53
2023-01-29T23:42:57.116Z,80.62
2023-01-29T23:45:24.403Z,80.60
2023-01-29T23:47:51.744Z,81.66
2023-01-29T23:50:19.381Z,81.84
2023-01-29T23:52:46.922Z,81.84
2023-01-29T23:55:14.198Z,82.33
2023-01-29T23:57:41.567Z,82.95
